sensor_id;sensor_type;location;lat;lon;timestamp;P1;durP1;ratioP1;P2;durP2;ratioP2
41739;SDS011;27422;52.444;13.300;2024-03-08T00:00:31;27.63;;;15.65;;
41739;SDS011;27422;52.444;13.300;2024-03-08T00:02:58;28.85;;;16.27;;
41739;SDS011;27422;52.444;13.300;2024-03-08T00:05:23;29.40;;;15.68;;
41739;SDS011;27422;52.444;13.300;2024-03-08T00:07:49;29.70;;;16.40;;
41739;SDS011;27422;52.444;13.300;2024-03-08T00:10:14;30.15;;;16.58;;
41739;SDS011;27422;52.444;13.300;2024-03-08T00:12:40;30.45;;;16.70;;
41739;SDS011;27422;52.444;13.300;2024-03-08T00:15:08;33.08;;;16.48;;
41739;SDS011;27422;52.444;13.300;2024-03-08T00:17:34;29.15;;;16.80;;
41739;SDS011;27422;52.444;13.300;2024-03-08T00:20:00;31.27;;;17.20;;
41739;SDS011;27422;52.444;13.300;2024-03-08T00:22:25;29.15;;;16.73;;
41739;SDS011;27422;52.444;13.300;2024-03-08T00:24:50;31.27;;;17.50;;
41739;SDS011;27422;52.444;13.300;2024-03-08T00:27:16;28.45;;;15.63;;
41739;SDS011;27422;52.444;13.300;2024-03-08T00:29:41;29.23;;;15.63;;
41739;SDS011;27422;52.444;13.300;2024-03-08T00:32:06;30.20;;;16.50;;
41739;SDS011;27422;52.444;13.300;2024-03-08T00:34:34;30.75;;;17.38;;
41739;SDS011;27422;52.444;13.300;2024-03-08T00:37:00;29.52;;;16.88;;
41739;SDS011;27422;52.444;13.300;2024-03-08T00:39:25;32.13;;;17.42;;
41739;SDS011;27422;52.444;13.300;2024-03-08T00:41:50;32.00;;;17.23;;
41739;SDS011;27422;52.444;13.300;2024-03-08T00:44:16;30.30;;;16.70;;
41739;SDS011;27422;52.444;13.300;2024-03-08T00:46:41;30.90;;;16.42;;
41739;SDS011;27422;52.444;13.300;2024-03-08T00:49:07;32.45;;;17.50;;
41739;SDS011;27422;52.444;13.300;2024-03-08T00:51:32;29.48;;;17.08;;
41739;SDS011;27422;52.444;13.300;2024-03-08T00:53:58;30.05;;;16.05;;
41739;SDS011;27422;52.444;13.300;2024-03-08T00:56:23;29.70;;;16.30;;
41739;SDS011;27422;52.444;13.300;2024-03-08T00:58:49;31.75;;;17.80;;
41739;SDS011;27422;52.444;13.300;2024-03-08T01:01:15;33.90;;;17.02;;
41739;SDS011;27422;52.444;13.300;2024-03-08T01:03:42;31.33;;;17.25;;
41739;SDS011;27422;52.444;13.300;2024-03-08T01:06:08;28.63;;;16.52;;
41739;SDS011;27422;52.444;13.300;2024-03-08T01:08:33;32.30;;;17.60;;
41739;SDS011;27422;52.444;13.300;2024-03-08T01:10:58;34.13;;;17.90;;
41739;SDS011;27422;52.444;13.300;2024-03-08T01:13:23;31.98;;;16.77;;
41739;SDS011;27422;52.444;13.300;2024-03-08T01:15:49;30.63;;;17.52;;
41739;SDS011;27422;52.444;13.300;2024-03-08T01:18:14;34.80;;;18.13;;
41739;SDS011;27422;52.444;13.300;2024-03-08T01:20:39;30.55;;;17.45;;
41739;SDS011;27422;52.444;13.300;2024-03-08T01:23:06;31.90;;;17.27;;
41739;SDS011;27422;52.444;13.300;2024-03-08T01:25:32;31.85;;;16.73;;
41739;SDS011;27422;52.444;13.300;2024-03-08T01:27:58;31.80;;;17.05;;
41739;SDS011;27422;52.444;13.300;2024-03-08T01:30:23;31.13;;;16.52;;
41739;SDS011;27422;52.444;13.300;2024-03-08T01:32:48;31.37;;;17.57;;
41739;SDS011;27422;52.444;13.300;2024-03-08T01:35:13;32.55;;;17.05;;
41739;SDS011;27422;52.444;13.300;2024-03-08T01:37:39;32.22;;;17.15;;
41739;SDS011;27422;52.444;13.300;2024-03-08T01:40:04;32.67;;;16.65;;
41739;SDS011;27422;52.444;13.300;2024-03-08T01:42:30;31.65;;;16.63;;
41739;SDS011;27422;52.444;13.300;2024-03-08T01:44:55;30.75;;;17.15;;
41739;SDS011;27422;52.444;13.300;2024-03-08T01:47:21;32.53;;;16.30;;
41739;SDS011;27422;52.444;13.300;2024-03-08T01:49:48;29.58;;;16.25;;
41739;SDS011;27422;52.444;13.300;2024-03-08T01:52:13;29.27;;;16.33;;
41739;SDS011;27422;52.444;13.300;2024-03-08T01:54:39;32.45;;;17.73;;
41739;SDS011;27422;52.444;13.300;2024-03-08T01:57:06;34.63;;;15.85;;
41739;SDS011;27422;52.444;13.300;2024-03-08T01:59:31;32.80;;;16.83;;
41739;SDS011;27422;52.444;13.300;2024-03-08T02:01:57;32.60;;;16.92;;
41739;SDS011;27422;52.444;13.300;2024-03-08T02:04:25;29.42;;;16.77;;
41739;SDS011;27422;52.444;13.300;2024-03-08T02:06:50;33.13;;;17.65;;
41739;SDS011;27422;52.444;13.300;2024-03-08T02:09:16;32.10;;;16.88;;
41739;SDS011;27422;52.444;13.300;2024-03-08T02:11:42;33.08;;;16.52;;
41739;SDS011;27422;52.444;13.300;2024-03-08T02:14:08;30.42;;;15.80;;
41739;SDS011;27422;52.444;13.300;2024-03-08T02:16:33;30.13;;;16.53;;
41739;SDS011;27422;52.444;13.300;2024-03-08T02:18:58;32.08;;;17.17;;
41739;SDS011;27422;52.444;13.300;2024-03-08T02:21:23;31.45;;;16.23;;
41739;SDS011;27422;52.444;13.300;2024-03-08T02:23:49;33.40;;;16.38;;
41739;SDS011;27422;52.444;13.300;2024-03-08T02:26:17;33.33;;;16.45;;
41739;SDS011;27422;52.444;13.300;2024-03-08T02:28:42;32.47;;;17.75;;
41739;SDS011;27422;52.444;13.300;2024-03-08T02:31:08;29.27;;;16.45;;
41739;SDS011;27422;52.444;13.300;2024-03-08T02:33:34;32.97;;;16.88;;
41739;SDS011;27422;52.444;13.300;2024-03-08T02:35:59;32.67;;;16.50;;
41739;SDS011;27422;52.444;13.300;2024-03-08T02:38:25;33.58;;;16.77;;
41739;SDS011;27422;52.444;13.300;2024-03-08T02:40:51;31.48;;;16.80;;
41739;SDS011;27422;52.444;13.300;2024-03-08T02:43:17;31.65;;;16.45;;
41739;SDS011;27422;52.444;13.300;2024-03-08T02:45:45;33.92;;;17.02;;
41739;SDS011;27422;52.444;13.300;2024-03-08T02:48:11;28.25;;;15.50;;
41739;SDS011;27422;52.444;13.300;2024-03-08T02:50:36;35.20;;;17.35;;
41739;SDS011;27422;52.444;13.300;2024-03-08T02:53:02;30.95;;;16.55;;
41739;SDS011;27422;52.444;13.300;2024-03-08T02:55:27;35.03;;;17.40;;
41739;SDS011;27422;52.444;13.300;2024-03-08T02:57:53;31.50;;;16.98;;
41739;SDS011;27422;52.444;13.300;2024-03-08T03:00:21;31.13;;;16.55;;
41739;SDS011;27422;52.444;13.300;2024-03-08T03:02:48;34.45;;;18.05;;
41739;SDS011;27422;52.444;13.300;2024-03-08T03:05:13;34.50;;;16.98;;
41739;SDS011;27422;52.444;13.300;2024-03-08T03:07:39;29.85;;;17.02;;
41739;SDS011;27422;52.444;13.300;2024-03-08T03:10:04;31.55;;;16.58;;
41739;SDS011;27422;52.444;13.300;2024-03-08T03:12:30;32.50;;;17.63;;
41739;SDS011;27422;52.444;13.300;2024-03-08T03:14:56;34.45;;;17.58;;
41739;SDS011;27422;52.444;13.300;2024-03-08T03:17:24;31.73;;;17.50;;
41739;SDS011;27422;52.444;13.300;2024-03-08T03:19:49;30.67;;;15.73;;
41739;SDS011;27422;52.444;13.300;2024-03-08T03:22:15;37.13;;;17.48;;
41739;SDS011;27422;52.444;13.300;2024-03-08T03:24:41;32.10;;;16.65;;
41739;SDS011;27422;52.444;13.300;2024-03-08T03:27:07;30.98;;;17.02;;
41739;SDS011;27422;52.444;13.300;2024-03-08T03:29:42;32.30;;;17.42;;
41739;SDS011;27422;52.444;13.300;2024-03-08T03:32:10;34.13;;;17.23;;
41739;SDS011;27422;52.444;13.300;2024-03-08T03:34:37;31.85;;;17.30;;
41739;SDS011;27422;52.444;13.300;2024-03-08T03:37:02;35.30;;;18.33;;
41739;SDS011;27422;52.444;13.300;2024-03-08T03:39:28;29.92;;;17.00;;
41739;SDS011;27422;52.444;13.300;2024-03-08T03:41:56;33.13;;;17.20;;
41739;SDS011;27422;52.444;13.300;2024-03-08T03:44:21;33.42;;;17.55;;
41739;SDS011;27422;52.444;13.300;2024-03-08T03:46:48;31.60;;;16.17;;
41739;SDS011;27422;52.444;13.300;2024-03-08T03:49:15;34.25;;;17.63;;
41739;SDS011;27422;52.444;13.300;2024-03-08T03:51:40;29.08;;;16.27;;
41739;SDS011;27422;52.444;13.300;2024-03-08T03:54:06;31.90;;;17.53;;
41739;SDS011;27422;52.444;13.300;2024-03-08T03:56:31;32.13;;;17.20;;
41739;SDS011;27422;52.444;13.300;2024-03-08T03:58:56;32.55;;;16.83;;
41739;SDS011;27422;52.444;13.300;2024-03-08T04:01:22;34.15;;;16.90;;
41739;SDS011;27422;52.444;13.300;2024-03-08T04:03:47;34.03;;;17.65;;
41739;SDS011;27422;52.444;13.300;2024-03-08T04:06:12;34.83;;;17.70;;
41739;SDS011;27422;52.444;13.300;2024-03-08T04:08:38;35.00;;;18.87;;
41739;SDS011;27422;52.444;13.300;2024-03-08T04:11:03;33.13;;;16.77;;
41739;SDS011;27422;52.444;13.300;2024-03-08T04:13:28;34.00;;;17.20;;
41739;SDS011;27422;52.444;13.300;2024-03-08T04:15:54;35.53;;;17.92;;
41739;SDS011;27422;52.444;13.300;2024-03-08T04:18:19;35.13;;;18.98;;
41739;SDS011;27422;52.444;13.300;2024-03-08T04:20:44;35.47;;;17.92;;
41739;SDS011;27422;52.444;13.300;2024-03-08T04:23:10;38.00;;;19.15;;
41739;SDS011;27422;52.444;13.300;2024-03-08T04:25:35;33.45;;;18.83;;
41739;SDS011;27422;52.444;13.300;2024-03-08T04:28:01;37.63;;;19.77;;
41739;SDS011;27422;52.444;13.300;2024-03-08T04:30:26;37.38;;;19.42;;
41739;SDS011;27422;52.444;13.300;2024-03-08T04:32:54;36.70;;;18.88;;
41739;SDS011;27422;52.444;13.300;2024-03-08T04:35:19;37.47;;;19.13;;
41739;SDS011;27422;52.444;13.300;2024-03-08T04:37:45;37.60;;;19.80;;
41739;SDS011;27422;52.444;13.300;2024-03-08T04:40:10;35.17;;;18.58;;
41739;SDS011;27422;52.444;13.300;2024-03-08T04:42:36;36.65;;;18.95;;
41739;SDS011;27422;52.444;13.300;2024-03-08T04:45:02;36.95;;;19.05;;
41739;SDS011;27422;52.444;13.300;2024-03-08T04:47:27;39.63;;;19.27;;
41739;SDS011;27422;52.444;13.300;2024-03-08T04:49:52;37.55;;;19.95;;
41739;SDS011;27422;52.444;13.300;2024-03-08T04:52:18;39.00;;;19.75;;
41739;SDS011;27422;52.444;13.300;2024-03-08T04:54:43;37.30;;;18.92;;
41739;SDS011;27422;52.444;13.300;2024-03-08T04:57:09;39.22;;;19.65;;
41739;SDS011;27422;52.444;13.300;2024-03-08T04:59:35;40.25;;;19.27;;
41739;SDS011;27422;52.444;13.300;2024-03-08T05:02:01;40.63;;;20.98;;
41739;SDS011;27422;52.444;13.300;2024-03-08T05:04:26;39.43;;;19.90;;
41739;SDS011;27422;52.444;13.300;2024-03-08T05:06:51;40.17;;;19.75;;
41739;SDS011;27422;52.444;13.300;2024-03-08T05:09:17;43.83;;;20.83;;
41739;SDS011;27422;52.444;13.300;2024-03-08T05:11:43;36.55;;;19.77;;
41739;SDS011;27422;52.444;13.300;2024-03-08T05:14:09;36.75;;;19.58;;
41739;SDS011;27422;52.444;13.300;2024-03-08T05:16:34;39.67;;;20.75;;
41739;SDS011;27422;52.444;13.300;2024-03-08T05:19:00;38.67;;;21.00;;
41739;SDS011;27422;52.444;13.300;2024-03-08T05:21:26;43.85;;;21.40;;
41739;SDS011;27422;52.444;13.300;2024-03-08T05:23:51;37.70;;;19.60;;
41739;SDS011;27422;52.444;13.300;2024-03-08T05:26:16;38.43;;;20.73;;
41739;SDS011;27422;52.444;13.300;2024-03-08T05:28:42;38.58;;;20.63;;
41739;SDS011;27422;52.444;13.300;2024-03-08T05:31:07;44.65;;;21.27;;
41739;SDS011;27422;52.444;13.300;2024-03-08T05:33:32;37.47;;;20.85;;
41739;SDS011;27422;52.444;13.300;2024-03-08T05:35:59;36.22;;;19.75;;
41739;SDS011;27422;52.444;13.300;2024-03-08T05:38:25;40.22;;;21.45;;
41739;SDS011;27422;52.444;13.300;2024-03-08T05:40:50;41.33;;;21.17;;
41739;SDS011;27422;52.444;13.300;2024-03-08T05:43:16;40.80;;;20.90;;
41739;SDS011;27422;52.444;13.300;2024-03-08T05:45:44;37.85;;;20.60;;
41739;SDS011;27422;52.444;13.300;2024-03-08T05:48:09;42.95;;;21.38;;
41739;SDS011;27422;52.444;13.300;2024-03-08T05:50:35;40.65;;;21.08;;
41739;SDS011;27422;52.444;13.300;2024-03-08T05:53:00;41.35;;;21.60;;
41739;SDS011;27422;52.444;13.300;2024-03-08T05:55:25;43.00;;;22.30;;
41739;SDS011;27422;52.444;13.300;2024-03-08T05:57:50;43.33;;;22.65;;
41739;SDS011;27422;52.444;13.300;2024-03-08T06:00:16;45.58;;;22.40;;
41739;SDS011;27422;52.444;13.300;2024-03-08T06:02:41;43.72;;;22.63;;
41739;SDS011;27422;52.444;13.300;2024-03-08T06:05:10;47.58;;;22.17;;
41739;SDS011;27422;52.444;13.300;2024-03-08T06:07:36;41.80;;;21.95;;
41739;SDS011;27422;52.444;13.300;2024-03-08T06:10:01;38.00;;;20.63;;
41739;SDS011;27422;52.444;13.300;2024-03-08T06:12:26;41.47;;;21.95;;
41739;SDS011;27422;52.444;13.300;2024-03-08T06:14:54;42.88;;;22.23;;
41739;SDS011;27422;52.444;13.300;2024-03-08T06:17:19;40.92;;;22.05;;
41739;SDS011;27422;52.444;13.300;2024-03-08T06:19:44;41.93;;;22.47;;
41739;SDS011;27422;52.444;13.300;2024-03-08T06:22:09;44.97;;;22.87;;
41739;SDS011;27422;52.444;13.300;2024-03-08T06:24:35;43.03;;;22.35;;
41739;SDS011;27422;52.444;13.300;2024-03-08T06:27:03;42.20;;;22.52;;
41739;SDS011;27422;52.444;13.300;2024-03-08T06:29:28;40.05;;;20.58;;
41739;SDS011;27422;52.444;13.300;2024-03-08T06:31:54;44.45;;;22.25;;
41739;SDS011;27422;52.444;13.300;2024-03-08T06:34:20;40.70;;;22.30;;
41739;SDS011;27422;52.444;13.300;2024-03-08T06:36:46;41.92;;;22.55;;
41739;SDS011;27422;52.444;13.300;2024-03-08T06:39:14;42.75;;;22.75;;
41739;SDS011;27422;52.444;13.300;2024-03-08T06:41:39;45.55;;;21.90;;
41739;SDS011;27422;52.444;13.300;2024-03-08T06:44:05;42.25;;;22.90;;
41739;SDS011;27422;52.444;13.300;2024-03-08T06:46:32;42.55;;;21.27;;
41739;SDS011;27422;52.444;13.300;2024-03-08T06:48:58;44.38;;;23.08;;
41739;SDS011;27422;52.444;13.300;2024-03-08T06:51:24;40.83;;;21.97;;
41739;SDS011;27422;52.444;13.300;2024-03-08T06:53:49;38.33;;;22.15;;
41739;SDS011;27422;52.444;13.300;2024-03-08T06:56:14;35.22;;;20.42;;
41739;SDS011;27422;52.444;13.300;2024-03-08T06:58:40;40.75;;;21.60;;
41739;SDS011;27422;52.444;13.300;2024-03-08T07:01:05;42.30;;;21.00;;
41739;SDS011;27422;52.444;13.300;2024-03-08T07:03:32;37.72;;;20.05;;
41739;SDS011;27422;52.444;13.300;2024-03-08T07:05:57;38.47;;;20.45;;
41739;SDS011;27422;52.444;13.300;2024-03-08T07:08:23;36.55;;;20.08;;
41739;SDS011;27422;52.444;13.300;2024-03-08T07:10:48;36.08;;;19.98;;
41739;SDS011;27422;52.444;13.300;2024-03-08T07:13:14;38.85;;;20.55;;
41739;SDS011;27422;52.444;13.300;2024-03-08T07:15:39;38.35;;;21.13;;
41739;SDS011;27422;52.444;13.300;2024-03-08T07:18:05;40.53;;;21.38;;
41739;SDS011;27422;52.444;13.300;2024-03-08T07:20:30;38.80;;;20.42;;
41739;SDS011;27422;52.444;13.300;2024-03-08T07:22:56;37.47;;;20.02;;
41739;SDS011;27422;52.444;13.300;2024-03-08T07:25:21;37.60;;;19.58;;
41739;SDS011;27422;52.444;13.300;2024-03-08T07:27:47;40.75;;;20.85;;
41739;SDS011;27422;52.444;13.300;2024-03-08T07:30:12;36.38;;;19.35;;
41739;SDS011;27422;52.444;13.300;2024-03-08T07:32:48;32.67;;;18.70;;
41739;SDS011;27422;52.444;13.300;2024-03-08T07:35:13;35.97;;;20.00;;
41739;SDS011;27422;52.444;13.300;2024-03-08T07:37:39;36.38;;;19.13;;
41739;SDS011;27422;52.444;13.300;2024-03-08T07:40:05;34.95;;;18.30;;
41739;SDS011;27422;52.444;13.300;2024-03-08T07:42:30;39.17;;;20.05;;
41739;SDS011;27422;52.444;13.300;2024-03-08T07:44:55;36.85;;;19.40;;
41739;SDS011;27422;52.444;13.300;2024-03-08T07:47:21;37.47;;;18.85;;
41739;SDS011;27422;52.444;13.300;2024-03-08T07:49:46;38.10;;;19.53;;
41739;SDS011;27422;52.444;13.300;2024-03-08T07:52:11;35.53;;;19.27;;
41739;SDS011;27422;52.444;13.300;2024-03-08T07:54:40;34.03;;;18.75;;
41739;SDS011;27422;52.444;13.300;2024-03-08T07:57:06;36.00;;;19.88;;
41739;SDS011;27422;52.444;13.300;2024-03-08T07:59:32;37.28;;;19.38;;
41739;SDS011;27422;52.444;13.300;2024-03-08T08:01:58;34.83;;;18.95;;
41739;SDS011;27422;52.444;13.300;2024-03-08T08:04:24;38.95;;;18.38;;
41739;SDS011;27422;52.444;13.300;2024-03-08T08:06:50;34.15;;;18.90;;
41739;SDS011;27422;52.444;13.300;2024-03-08T08:09:16;33.58;;;18.60;;
41739;SDS011;27422;52.444;13.300;2024-03-08T08:11:47;31.13;;;18.13;;
41739;SDS011;27422;52.444;13.300;2024-03-08T08:14:12;28.35;;;17.52;;
41739;SDS011;27422;52.444;13.300;2024-03-08T08:16:38;30.15;;;17.42;;
41739;SDS011;27422;52.444;13.300;2024-03-08T08:19:06;33.25;;;18.50;;
41739;SDS011;27422;52.444;13.300;2024-03-08T08:21:33;27.52;;;16.50;;
41739;SDS011;27422;52.444;13.300;2024-03-08T08:23:59;32.17;;;18.20;;
41739;SDS011;27422;52.444;13.300;2024-03-08T08:26:25;27.63;;;16.45;;
41739;SDS011;27422;52.444;13.300;2024-03-08T08:28:51;27.58;;;17.23;;
41739;SDS011;27422;52.444;13.300;2024-03-08T08:31:18;30.85;;;16.77;;
41739;SDS011;27422;52.444;13.300;2024-03-08T08:33:44;29.85;;;17.35;;
41739;SDS011;27422;52.444;13.300;2024-03-08T08:36:09;28.67;;;16.48;;
41739;SDS011;27422;52.444;13.300;2024-03-08T08:38:35;28.88;;;17.35;;
41739;SDS011;27422;52.444;13.300;2024-03-08T08:41:00;27.55;;;15.93;;
41739;SDS011;27422;52.444;13.300;2024-03-08T08:43:27;26.70;;;16.65;;
41739;SDS011;27422;52.444;13.300;2024-03-08T08:45:54;27.80;;;16.23;;
41739;SDS011;27422;52.444;13.300;2024-03-08T08:48:20;25.42;;;15.52;;
41739;SDS011;27422;52.444;13.300;2024-03-08T08:50:45;27.20;;;15.20;;
41739;SDS011;27422;52.444;13.300;2024-03-08T08:53:11;24.17;;;16.13;;
41739;SDS011;27422;52.444;13.300;2024-03-08T08:55:39;25.10;;;15.60;;
41739;SDS011;27422;52.444;13.300;2024-03-08T08:58:05;23.90;;;15.15;;
41739;SDS011;27422;52.444;13.300;2024-03-08T09:00:32;23.93;;;14.33;;
41739;SDS011;27422;52.444;13.300;2024-03-08T09:02:57;22.80;;;14.55;;
41739;SDS011;27422;52.444;13.300;2024-03-08T09:05:23;24.23;;;14.32;;
41739;SDS011;27422;52.444;13.300;2024-03-08T09:07:49;22.45;;;14.82;;
41739;SDS011;27422;52.444;13.300;2024-03-08T09:10:15;21.65;;;14.45;;
41739;SDS011;27422;52.444;13.300;2024-03-08T09:12:40;22.67;;;14.73;;
41739;SDS011;27422;52.444;13.300;2024-03-08T09:15:06;23.38;;;15.13;;
41739;SDS011;27422;52.444;13.300;2024-03-08T09:17:33;25.55;;;15.00;;
41739;SDS011;27422;52.444;13.300;2024-03-08T09:19:58;24.42;;;15.57;;
41739;SDS011;27422;52.444;13.300;2024-03-08T09:22:24;25.02;;;15.50;;
41739;SDS011;27422;52.444;13.300;2024-03-08T09:24:50;24.40;;;14.52;;
41739;SDS011;27422;52.444;13.300;2024-03-08T09:27:15;24.98;;;15.10;;
41739;SDS011;27422;52.444;13.300;2024-03-08T09:29:41;23.48;;;15.45;;
41739;SDS011;27422;52.444;13.300;2024-03-08T09:32:06;23.77;;;15.30;;
41739;SDS011;27422;52.444;13.300;2024-03-08T09:34:32;25.30;;;15.70;;
41739;SDS011;27422;52.444;13.300;2024-03-08T09:36:57;25.13;;;15.30;;
41739;SDS011;27422;52.444;13.300;2024-03-08T09:39:23;25.45;;;15.57;;
41739;SDS011;27422;52.444;13.300;2024-03-08T09:41:48;23.80;;;15.60;;
41739;SDS011;27422;52.444;13.300;2024-03-08T09:44:14;23.83;;;14.93;;
41739;SDS011;27422;52.444;13.300;2024-03-08T09:46:40;23.45;;;14.43;;
41739;SDS011;27422;52.444;13.300;2024-03-08T09:49:05;22.95;;;14.40;;
41739;SDS011;27422;52.444;13.300;2024-03-08T09:51:31;23.45;;;14.02;;
41739;SDS011;27422;52.444;13.300;2024-03-08T09:53:58;22.10;;;13.68;;
41739;SDS011;27422;52.444;13.300;2024-03-08T09:56:23;23.77;;;14.98;;
41739;SDS011;27422;52.444;13.300;2024-03-08T09:58:49;23.77;;;14.25;;
41739;SDS011;27422;52.444;13.300;2024-03-08T10:01:33;23.63;;;14.43;;
41739;SDS011;27422;52.444;13.300;2024-03-08T10:03:58;22.58;;;13.77;;
41739;SDS011;27422;52.444;13.300;2024-03-08T10:06:24;20.25;;;13.07;;
41739;SDS011;27422;52.444;13.300;2024-03-08T10:08:50;25.02;;;13.05;;
41739;SDS011;27422;52.444;13.300;2024-03-08T10:11:17;23.73;;;13.00;;
41739;SDS011;27422;52.444;13.300;2024-03-08T10:13:42;27.30;;;13.82;;
41739;SDS011;27422;52.444;13.300;2024-03-08T10:16:07;22.13;;;12.80;;
41739;SDS011;27422;52.444;13.300;2024-03-08T10:18:33;21.02;;;12.48;;
41739;SDS011;27422;52.444;13.300;2024-03-08T10:21:06;23.52;;;12.57;;
41739;SDS011;27422;52.444;13.300;2024-03-08T10:23:41;25.27;;;13.00;;
41739;SDS011;27422;52.444;13.300;2024-03-08T10:26:11;23.52;;;13.75;;
41739;SDS011;27422;52.444;13.300;2024-03-08T10:28:46;21.65;;;12.05;;
41739;SDS011;27422;52.444;13.300;2024-03-08T10:31:15;21.85;;;12.63;;
41739;SDS011;27422;52.444;13.300;2024-03-08T10:33:41;18.88;;;11.57;;
41739;SDS011;27422;52.444;13.300;2024-03-08T10:36:09;18.13;;;11.18;;
41739;SDS011;27422;52.444;13.300;2024-03-08T10:38:36;19.92;;;11.63;;
41739;SDS011;27422;52.444;13.300;2024-03-08T10:41:01;21.27;;;11.82;;
41739;SDS011;27422;52.444;13.300;2024-03-08T10:43:28;20.60;;;11.33;;
41739;SDS011;27422;52.444;13.300;2024-03-08T10:46:05;18.77;;;11.23;;
41739;SDS011;27422;52.444;13.300;2024-03-08T10:48:44;20.95;;;11.32;;
41739;SDS011;27422;52.444;13.300;2024-03-08T10:51:11;19.27;;;11.02;;
41739;SDS011;27422;52.444;13.300;2024-03-08T10:53:39;15.50;;;9.57;;
41739;SDS011;27422;52.444;13.300;2024-03-08T10:56:06;20.50;;;11.23;;
41739;SDS011;27422;52.444;13.300;2024-03-08T10:58:32;17.35;;;10.43;;
41739;SDS011;27422;52.444;13.300;2024-03-08T11:01:02;30.48;;;11.85;;
41739;SDS011;27422;52.444;13.300;2024-03-08T11:03:44;20.73;;;10.43;;
41739;SDS011;27422;52.444;13.300;2024-03-08T11:06:22;17.75;;;9.13;;
41739;SDS011;27422;52.444;13.300;2024-03-08T11:08:48;15.15;;;9.70;;
41739;SDS011;27422;52.444;13.300;2024-03-08T11:11:27;16.90;;;10.05;;
41739;SDS011;27422;52.444;13.300;2024-03-08T11:13:56;25.45;;;10.35;;
41739;SDS011;27422;52.444;13.300;2024-03-08T11:21:57;15.63;;;9.93;;
41739;SDS011;27422;52.444;13.300;2024-03-08T11:24:22;16.02;;;9.50;;
41739;SDS011;27422;52.444;13.300;2024-03-08T11:26:48;14.95;;;9.55;;
41739;SDS011;27422;52.444;13.300;2024-03-08T11:32:11;15.38;;;9.73;;
41739;SDS011;27422;52.444;13.300;2024-03-08T11:34:37;13.50;;;9.25;;
41739;SDS011;27422;52.444;13.300;2024-03-08T11:37:04;14.25;;;9.13;;
41739;SDS011;27422;52.444;13.300;2024-03-08T11:39:30;14.25;;;9.10;;
41739;SDS011;27422;52.444;13.300;2024-03-08T11:41:56;15.35;;;9.48;;
41739;SDS011;27422;52.444;13.300;2024-03-08T11:44:24;16.45;;;11.35;;
41739;SDS011;27422;52.444;13.300;2024-03-08T11:46:52;13.95;;;10.05;;
41739;SDS011;27422;52.444;13.300;2024-03-08T11:49:18;13.38;;;9.90;;
41739;SDS011;27422;52.444;13.300;2024-03-08T11:51:43;13.80;;;9.65;;
41739;SDS011;27422;52.444;13.300;2024-03-08T11:54:12;15.88;;;10.32;;
41739;SDS011;27422;52.444;13.300;2024-03-08T11:56:40;17.95;;;9.68;;
41739;SDS011;27422;52.444;13.300;2024-03-08T11:59:10;16.58;;;10.07;;
41739;SDS011;27422;52.444;13.300;2024-03-08T12:01:37;15.30;;;10.73;;
41739;SDS011;27422;52.444;13.300;2024-03-08T12:04:02;14.55;;;10.45;;
41739;SDS011;27422;52.444;13.300;2024-03-08T12:06:37;12.77;;;9.48;;
41739;SDS011;27422;52.444;13.300;2024-03-08T12:09:09;12.85;;;9.27;;
41739;SDS011;27422;52.444;13.300;2024-03-08T12:11:35;13.30;;;9.05;;
41739;SDS011;27422;52.444;13.300;2024-03-08T12:14:01;13.10;;;9.45;;
41739;SDS011;27422;52.444;13.300;2024-03-08T12:16:26;13.77;;;10.18;;
41739;SDS011;27422;52.444;13.300;2024-03-08T12:18:53;15.37;;;10.03;;
41739;SDS011;27422;52.444;13.300;2024-03-08T12:21:21;14.18;;;8.80;;
41739;SDS011;27422;52.444;13.300;2024-03-08T12:23:51;19.08;;;11.15;;
41739;SDS011;27422;52.444;13.300;2024-03-08T12:26:27;17.25;;;10.23;;
41739;SDS011;27422;52.444;13.300;2024-03-08T12:28:53;16.27;;;9.10;;
41739;SDS011;27422;52.444;13.300;2024-03-08T12:31:18;18.42;;;9.57;;
41739;SDS011;27422;52.444;13.300;2024-03-08T12:33:49;15.77;;;9.55;;
41739;SDS011;27422;52.444;13.300;2024-03-08T12:36:15;16.52;;;9.85;;
41739;SDS011;27422;52.444;13.300;2024-03-08T12:38:43;16.45;;;9.57;;
41739;SDS011;27422;52.444;13.300;2024-03-08T12:41:08;15.90;;;8.57;;
41739;SDS011;27422;52.444;13.300;2024-03-08T12:43:33;15.20;;;8.70;;
41739;SDS011;27422;52.444;13.300;2024-03-08T12:45:59;13.75;;;8.07;;
41739;SDS011;27422;52.444;13.300;2024-03-08T12:48:24;14.27;;;8.05;;
41739;SDS011;27422;52.444;13.300;2024-03-08T12:50:49;14.20;;;7.93;;
41739;SDS011;27422;52.444;13.300;2024-03-08T12:53:16;15.13;;;8.95;;
41739;SDS011;27422;52.444;13.300;2024-03-08T12:55:42;15.10;;;8.77;;
41739;SDS011;27422;52.444;13.300;2024-03-08T12:58:07;14.43;;;8.50;;
41739;SDS011;27422;52.444;13.300;2024-03-08T13:00:36;15.25;;;9.00;;
41739;SDS011;27422;52.444;13.300;2024-03-08T13:03:02;14.75;;;8.48;;
41739;SDS011;27422;52.444;13.300;2024-03-08T13:05:27;13.60;;;8.70;;
41739;SDS011;27422;52.444;13.300;2024-03-08T13:07:53;14.85;;;9.02;;
41739;SDS011;27422;52.444;13.300;2024-03-08T13:10:20;15.48;;;8.82;;
41739;SDS011;27422;52.444;13.300;2024-03-08T13:12:45;13.63;;;8.52;;
41739;SDS011;27422;52.444;13.300;2024-03-08T13:15:10;19.97;;;11.40;;
41739;SDS011;27422;52.444;13.300;2024-03-08T13:17:40;18.75;;;10.55;;
41739;SDS011;27422;52.444;13.300;2024-03-08T13:20:06;14.88;;;9.77;;
41739;SDS011;27422;52.444;13.300;2024-03-08T13:22:32;16.37;;;10.27;;
41739;SDS011;27422;52.444;13.300;2024-03-08T13:24:57;18.17;;;10.07;;
41739;SDS011;27422;52.444;13.300;2024-03-08T13:27:25;18.20;;;10.38;;
41739;SDS011;27422;52.444;13.300;2024-03-08T13:29:51;16.95;;;9.95;;
41739;SDS011;27422;52.444;13.300;2024-03-08T13:32:16;18.50;;;11.43;;
41739;SDS011;27422;52.444;13.300;2024-03-08T13:34:45;20.02;;;11.10;;
41739;SDS011;27422;52.444;13.300;2024-03-08T13:37:10;18.50;;;10.80;;
41739;SDS011;27422;52.444;13.300;2024-03-08T13:39:36;20.63;;;11.18;;
41739;SDS011;27422;52.444;13.300;2024-03-08T13:42:11;18.55;;;11.10;;
41739;SDS011;27422;52.444;13.300;2024-03-08T13:44:38;18.77;;;11.45;;
41739;SDS011;27422;52.444;13.300;2024-03-08T13:47:04;19.65;;;11.98;;
41739;SDS011;27422;52.444;13.300;2024-03-08T13:49:29;19.25;;;11.70;;
41739;SDS011;27422;52.444;13.300;2024-03-08T13:51:55;19.15;;;11.20;;
41739;SDS011;27422;52.444;13.300;2024-03-08T13:54:20;17.17;;;11.35;;
41739;SDS011;27422;52.444;13.300;2024-03-08T13:56:46;19.90;;;11.35;;
41739;SDS011;27422;52.444;13.300;2024-03-08T13:59:11;17.65;;;11.23;;
41739;SDS011;27422;52.444;13.300;2024-03-08T14:01:37;19.80;;;11.13;;
41739;SDS011;27422;52.444;13.300;2024-03-08T14:04:02;19.25;;;10.82;;
41739;SDS011;27422;52.444;13.300;2024-03-08T14:06:28;17.92;;;10.88;;
41739;SDS011;27422;52.444;13.300;2024-03-08T14:08:55;19.23;;;11.07;;
41739;SDS011;27422;52.444;13.300;2024-03-08T14:11:22;19.13;;;11.18;;
41739;SDS011;27422;52.444;13.300;2024-03-08T14:13:49;17.83;;;10.75;;